Flugwetter Augsburg

[source: ADDS]
METAR
EDMA 121350Z 23009KT 9999 BKN010 BKN022 OVC028 03/01 Q1004 =
TAF EDMA 121100Z 1212/1221 23008KT 9999 BKN020 TEMPO 1212/1215 4000 -SHRA BKN009TCU BECMG 1216/1218 15005KT
TAF
TAF EDMA 121100Z 1212/1221 23008KT 9999 BKN020 TEMPO 1212/1215 4000 -SHRA BKN009TCU BECMG 1216/1218 15005KT =
Cookies erleichtern die Bereitstellung unserer Dienste. Mit der Nutzung unserer Dienste erklären Sie sich damit einverstanden, dass wir Cookies verwenden.
Weitere Informationen Ok